Time;durP1;ratioP1;P1;durP2;ratioP2;P2;SDS_P1;SDS_P2;PMS_P1;PMS_P2;Temp;Humidity;BMP_temperature;BMP_pressure;BME280_temperature;BME280_humidity;BME280_pressure;Samples;Min_cycle;Max_cycle;Signal;HPM_P1;HPM_P2
2021/12/31 00:02:18;;;;;;;0.45;0.45;;;;;;;;;;4978808;28;20629;-84
2021/12/31 00:04:47;;;;;;;0.40;0.40;;;;;;;;;;4978388;28;20206;-84
2021/12/31 00:07:14;;;;;;;0.45;0.45;;;;;;;;;;4977434;28;20224;-84
2021/12/31 00:09:41;;;;;;;0.50;0.50;;;;;;;;;;4977747;28;20199;-84
2021/12/31 00:12:10;;;;;;;0.40;0.40;;;;;;;;;;4977794;28;20247;-84
2021/12/31 00:14:39;;;;;;;0.45;0.45;;;;;;;;;;4978530;28;20207;-84
2021/12/31 00:17:08;;;;;;;0.50;0.50;;;;;;;;;;4977813;28;20675;-84
2021/12/31 00:19:39;;;;;;;0.63;0.63;;;;;;;;;;4964396;28;20189;-83
2021/12/31 00:22:44;;;;;;;0.43;0.43;;;;;;;;;;4966640;28;20652;-83
2021/12/31 00:24:59;;;;;;;0.40;0.40;;;;;;;;;;4976427;28;20848;-83
2021/12/31 00:27:27;;;;;;;0.40;0.40;;;;;;;;;;4978015;28;20204;-84
2021/12/31 00:29:54;;;;;;;0.30;0.30;;;;;;;;;;4977276;28;20192;-83
2021/12/31 00:32:22;;;;;;;0.40;0.40;;;;;;;;;;4977343;28;20247;-84
2021/12/31 00:34:49;;;;;;;0.45;0.45;;;;;;;;;;4977648;28;20300;-84
2021/12/31 00:37:28;;;;;;;0.45;0.45;;;;;;;;;;4977967;28;20192;-84
2021/12/31 00:39:56;;;;;;;0.35;0.35;;;;;;;;;;4977077;28;20192;-84
2021/12/31 00:42:23;;;;;;;0.40;0.40;;;;;;;;;;4977787;28;20711;-83
2021/12/31 00:44:51;;;;;;;0.30;0.30;;;;;;;;;;4977057;28;20247;-84
2021/12/31 00:47:19;;;;;;;0.25;0.25;;;;;;;;;;4976900;28;20723;-84
2021/12/31 00:49:46;;;;;;;0.45;0.45;;;;;;;;;;4977664;28;20211;-84
2021/12/31 00:52:14;;;;;;;0.43;0.43;;;;;;;;;;4978042;28;20247;-84
2021/12/31 00:54:43;;;;;;;0.50;0.50;;;;;;;;;;4977994;28;20200;-83
2021/12/31 00:57:11;;;;;;;0.57;0.57;;;;;;;;;;4978342;28;20230;-83
2021/12/31 00:59:40;;;;;;;0.60;0.60;;;;;;;;;;4978791;28;20701;-83
2021/12/31 01:02:10;;;;;;;0.93;0.93;;;;;;;;;;4978256;28;20231;-83
2021/12/31 01:04:38;;;;;;;0.40;0.40;;;;;;;;;;4979366;28;20192;-83
2021/12/31 01:07:06;;;;;;;0.57;0.57;;;;;;;;;;4979202;28;20216;-84
2021/12/31 01:09:33;;;;;;;0.60;0.60;;;;;;;;;;4978235;28;20195;-83
2021/12/31 01:12:03;;;;;;;0.70;0.70;;;;;;;;;;4979011;28;20243;-83
2021/12/31 01:14:34;;;;;;;0.80;0.80;;;;;;;;;;4979436;28;20717;-83
2021/12/31 01:17:04;;;;;;;0.75;0.75;;;;;;;;;;4979240;28;20200;-84
2021/12/31 01:19:45;;;;;;;0.90;0.90;;;;;;;;;;4976817;28;20196;-84
2021/12/31 01:22:15;;;;;;;0.60;0.60;;;;;;;;;;4978056;28;20588;-83
2021/12/31 01:24:42;;;;;;;0.90;0.90;;;;;;;;;;4977182;28;20191;-84
2021/12/31 01:27:12;;;;;;;0.70;0.70;;;;;;;;;;4976883;28;20722;-83
2021/12/31 01:29:40;;;;;;;0.93;0.93;;;;;;;;;;4977044;28;20184;-83
2021/12/31 01:32:08;;;;;;;0.68;0.68;;;;;;;;;;4979700;28;20228;-84
2021/12/31 01:34:36;;;;;;;0.60;0.60;;;;;;;;;;4980466;28;20189;-83
2021/12/31 01:37:05;;;;;;;0.85;0.85;;;;;;;;;;4980305;28;20647;-84
2021/12/31 01:39:32;;;;;;;0.50;0.50;;;;;;;;;;4980673;28;20189;-84
2021/12/31 01:42:02;;;;;;;0.50;0.50;;;;;;;;;;4979905;28;20235;-84
2021/12/31 01:44:37;;;;;;;0.80;0.70;;;;;;;;;;4979267;28;20212;-84
2021/12/31 01:47:11;;;;;;;0.43;0.43;;;;;;;;;;4978807;28;20238;-83
2021/12/31 01:49:40;;;;;;;0.50;0.50;;;;;;;;;;4979276;28;20200;-84
2021/12/31 01:52:11;;;;;;;0.47;0.47;;;;;;;;;;4979166;28;20247;-83
2021/12/31 01:54:39;;;;;;;0.43;0.43;;;;;;;;;;4978988;28;20276;-84
2021/12/31 01:57:10;;;;;;;0.45;0.45;;;;;;;;;;4978742;28;20201;-84
2021/12/31 01:59:40;;;;;;;0.50;0.50;;;;;;;;;;4979174;28;20193;-83
2021/12/31 02:02:09;;;;;;;0.70;0.70;;;;;;;;;;4978790;28;20227;-84
2021/12/31 02:04:40;;;;;;;0.60;0.60;;;;;;;;;;4979425;28;20184;-84
2021/12/31 02:07:08;;;;;;;0.57;0.50;;;;;;;;;;4979413;28;20213;-84
2021/12/31 02:09:40;;;;;;;0.90;0.52;;;;;;;;;;4979334;28;20195;-84
2021/12/31 02:12:09;;;;;;;0.60;0.60;;;;;;;;;;4978400;28;20323;-84
2021/12/31 02:14:39;;;;;;;0.63;0.63;;;;;;;;;;4978736;28;20193;-84
2021/12/31 02:17:09;;;;;;;0.70;0.70;;;;;;;;;;4978988;28;20184;-84
2021/12/31 02:19:37;;;;;;;0.65;0.65;;;;;;;;;;4978145;28;20200;-84
2021/12/31 02:22:06;;;;;;;0.50;0.50;;;;;;;;;;4978102;28;20221;-84
2021/12/31 02:24:35;;;;;;;0.57;0.57;;;;;;;;;;4978217;28;20213;-83
2021/12/31 02:27:03;;;;;;;0.50;0.50;;;;;;;;;;4978053;28;20275;-83
2021/12/31 02:29:31;;;;;;;0.60;0.60;;;;;;;;;;4978044;28;20205;-83
2021/12/31 02:31:59;;;;;;;0.70;0.70;;;;;;;;;;4977699;28;20244;-83
2021/12/31 02:34:26;;;;;;;1.00;0.73;;;;;;;;;;4978595;28;20354;-84
2021/12/31 02:36:54;;;;;;;0.65;0.65;;;;;;;;;;4978406;28;20204;-83
2021/12/31 02:39:23;;;;;;;0.60;0.60;;;;;;;;;;4977717;28;20212;-84
2021/12/31 02:41:51;;;;;;;0.70;0.70;;;;;;;;;;4958119;28;20225;-84
2021/12/31 02:44:18;;;;;;;0.70;0.57;;;;;;;;;;4958434;29;20216;-83
2021/12/31 02:46:45;;;;;;;0.70;0.70;;;;;;;;;;4958712;29;20197;-84
2021/12/31 02:49:13;;;;;;;0.70;0.70;;;;;;;;;;4965681;28;20215;-84
2021/12/31 02:51:40;;;;;;;0.60;0.60;;;;;;;;;;4977763;28;20221;-84
2021/12/31 02:54:09;;;;;;;0.82;0.82;;;;;;;;;;4977604;28;20208;-83
2021/12/31 02:56:38;;;;;;;0.60;0.60;;;;;;;;;;4977316;28;20204;-81
2021/12/31 02:59:05;;;;;;;0.60;0.60;;;;;;;;;;4977308;28;20281;-84
2021/12/31 03:01:33;;;;;;;0.73;0.73;;;;;;;;;;4977455;28;20220;-83
2021/12/31 03:04:01;;;;;;;0.70;0.70;;;;;;;;;;4977428;28;20192;-84
2021/12/31 03:06:29;;;;;;;0.63;0.63;;;;;;;;;;4977238;28;20189;-84
2021/12/31 03:08:58;;;;;;;1.33;1.23;;;;;;;;;;4977244;28;20217;-82
2021/12/31 03:11:26;;;;;;;0.70;0.70;;;;;;;;;;4998055;23;20236;-86
2021/12/31 03:13:56;;;;;;;0.60;0.60;;;;;;;;;;4974292;28;20665;-86
2021/12/31 03:16:25;;;;;;;0.75;0.75;;;;;;;;;;4975060;28;20568;-87
2021/12/31 03:18:55;;;;;;;0.75;0.75;;;;;;;;;;4974798;28;20744;-86
2021/12/31 03:21:22;;;;;;;0.70;0.70;;;;;;;;;;4974187;28;20229;-87
2021/12/31 03:23:52;;;;;;;0.80;0.80;;;;;;;;;;4973816;28;20188;-87
2021/12/31 03:26:20;;;;;;;0.60;0.60;;;;;;;;;;4973855;28;20972;-87
2021/12/31 03:28:50;;;;;;;0.80;0.80;;;;;;;;;;4974547;28;20574;-88
2021/12/31 03:31:19;;;;;;;0.60;0.60;;;;;;;;;;4974336;28;20219;-87
2021/12/31 03:33:47;;;;;;;0.70;0.70;;;;;;;;;;4974425;28;20271;-87
2021/12/31 03:36:17;;;;;;;0.70;0.70;;;;;;;;;;4972865;28;20207;-87
2021/12/31 03:38:44;;;;;;;0.50;0.50;;;;;;;;;;4973617;28;20200;-88
2021/12/31 03:41:20;;;;;;;0.80;0.80;;;;;;;;;;4974335;28;20228;-87
2021/12/31 03:43:49;;;;;;;0.98;0.82;;;;;;;;;;4974190;28;20192;-87
2021/12/31 03:46:20;;;;;;;0.68;0.68;;;;;;;;;;4974073;28;20206;-87
2021/12/31 03:48:49;;;;;;;0.60;0.60;;;;;;;;;;4974214;28;20201;-87
2021/12/31 03:51:17;;;;;;;0.60;0.60;;;;;;;;;;4973992;28;20220;-87
2021/12/31 03:53:45;;;;;;;0.57;0.57;;;;;;;;;;4973219;28;20185;-87
2021/12/31 03:56:13;;;;;;;0.60;0.60;;;;;;;;;;4973312;28;20200;-87
2021/12/31 03:58:41;;;;;;;0.57;0.57;;;;;;;;;;4973259;28;20677;-87
2021/12/31 04:01:10;;;;;;;0.65;0.60;;;;;;;;;;4971509;28;20727;-87
2021/12/31 04:03:39;;;;;;;0.80;0.80;;;;;;;;;;4973220;28;20204;-87
2021/12/31 04:06:07;;;;;;;0.63;0.63;;;;;;;;;;4973026;28;20200;-88
2021/12/31 04:08:35;;;;;;;0.70;0.70;;;;;;;;;;4973639;28;20208;-86
2021/12/31 04:11:04;;;;;;;0.75;0.55;;;;;;;;;;4969401;28;20233;-87
2021/12/31 04:13:32;;;;;;;0.73;0.73;;;;;;;;;;4953873;29;20209;-87
2021/12/31 04:16:00;;;;;;;0.60;0.60;;;;;;;;;;4953992;29;20189;-86
2021/12/31 04:18:28;;;;;;;0.63;0.63;;;;;;;;;;4953552;29;20260;-86
2021/12/31 04:20:58;;;;;;;0.70;0.70;;;;;;;;;;4953027;28;20229;-87
2021/12/31 04:23:28;;;;;;;1.00;0.50;;;;;;;;;;4953334;29;20190;-87
2021/12/31 04:25:58;;;;;;;0.95;0.70;;;;;;;;;;4953469;29;20286;-86
2021/12/31 04:28:28;;;;;;;0.77;0.70;;;;;;;;;;4953392;29;20193;-86
2021/12/31 04:30:56;;;;;;;0.82;0.70;;;;;;;;;;4953862;28;20228;-87
2021/12/31 04:33:25;;;;;;;0.77;0.77;;;;;;;;;;4953130;29;20195;-88
2021/12/31 04:35:52;;;;;;;0.50;0.50;;;;;;;;;;4952254;29;20205;-87
2021/12/31 04:38:21;;;;;;;1.20;0.65;;;;;;;;;;4953040;29;20192;-88
2021/12/31 04:40:51;;;;;;;0.40;0.40;;;;;;;;;;4952624;28;20185;-87
2021/12/31 04:43:18;;;;;;;0.77;0.77;;;;;;;;;;4953545;29;20196;-87
2021/12/31 04:45:47;;;;;;;0.50;0.50;;;;;;;;;;4953484;29;20530;-87
2021/12/31 04:48:16;;;;;;;0.80;0.80;;;;;;;;;;4934948;29;20198;-87
2021/12/31 04:50:44;;;;;;;0.70;0.70;;;;;;;;;;4933743;29;20216;-86
2021/12/31 04:53:11;;;;;;;0.60;0.60;;;;;;;;;;4949513;29;20193;-87
2021/12/31 04:55:40;;;;;;;0.50;0.50;;;;;;;;;;4953994;29;20189;-86
2021/12/31 04:58:08;;;;;;;0.70;0.70;;;;;;;;;;4953418;29;20215;-87
2021/12/31 05:00:37;;;;;;;1.85;0.50;;;;;;;;;;4952958;28;20190;-88
2021/12/31 05:03:08;;;;;;;0.43;0.43;;;;;;;;;;4953961;29;20178;-87
2021/12/31 05:05:37;;;;;;;0.55;0.55;;;;;;;;;;4955796;28;20237;-88
2021/12/31 05:08:05;;;;;;;0.55;0.55;;;;;;;;;;4958068;29;20196;-87
2021/12/31 05:10:33;;;;;;;1.20;1.10;;;;;;;;;;4957655;29;20205;-87
2021/12/31 05:13:05;;;;;;;0.50;0.50;;;;;;;;;;4957271;28;20236;-87
2021/12/31 05:15:37;;;;;;;0.77;0.70;;;;;;;;;;4957755;29;20632;-88
2021/12/31 05:18:05;;;;;;;0.50;0.50;;;;;;;;;;4958143;29;20225;-87
2021/12/31 05:20:34;;;;;;;0.73;0.60;;;;;;;;;;4957971;29;20205;-87
2021/12/31 05:23:02;;;;;;;0.70;0.70;;;;;;;;;;4957902;29;20934;-88
2021/12/31 05:25:30;;;;;;;0.45;0.45;;;;;;;;;;4957588;29;20188;-87
2021/12/31 05:27:58;;;;;;;0.60;0.60;;;;;;;;;;4958023;29;20199;-87
2021/12/31 05:30:29;;;;;;;0.55;0.55;;;;;;;;;;4957872;29;20213;-88
2021/12/31 05:32:59;;;;;;;0.88;0.80;;;;;;;;;;4957566;29;20284;-88
2021/12/31 05:35:27;;;;;;;0.60;0.60;;;;;;;;;;4957395;29;20185;-87
2021/12/31 05:37:55;;;;;;;0.80;0.70;;;;;;;;;;4957580;29;20178;-87
2021/12/31 05:40:22;;;;;;;1.63;1.08;;;;;;;;;;4957556;29;20185;-88
2021/12/31 05:42:51;;;;;;;0.60;0.60;;;;;;;;;;4957802;29;20225;-87
2021/12/31 05:45:19;;;;;;;0.70;0.70;;;;;;;;;;4957313;29;20201;-87
2021/12/31 05:47:49;;;;;;;0.75;0.75;;;;;;;;;;4957308;29;20207;-87
2021/12/31 05:50:28;;;;;;;0.75;0.75;;;;;;;;;;4957443;29;20617;-87
2021/12/31 05:52:58;;;;;;;0.90;0.90;;;;;;;;;;4957137;29;20712;-86
2021/12/31 05:55:28;;;;;;;1.08;0.65;;;;;;;;;;4957295;29;20643;-87
2021/12/31 05:57:56;;;;;;;0.68;0.68;;;;;;;;;;4957256;29;20195;-86
2021/12/31 06:00:26;;;;;;;0.70;0.70;;;;;;;;;;4957425;29;20276;-86
2021/12/31 06:03:02;;;;;;;0.60;0.60;;;;;;;;;;4957434;29;20228;-86
2021/12/31 06:05:31;;;;;;;1.27;1.17;;;;;;;;;;4956710;29;20205;-87
2021/12/31 06:07:59;;;;;;;0.70;0.70;;;;;;;;;;4957316;29;20194;-86
2021/12/31 06:10:27;;;;;;;1.05;0.77;;;;;;;;;;4956917;29;20295;-87
2021/12/31 06:12:58;;;;;;;1.08;0.98;;;;;;;;;;4957025;28;20237;-86
2021/12/31 06:15:28;;;;;;;0.73;0.70;;;;;;;;;;4957672;29;20281;-86
2021/12/31 06:17:56;;;;;;;0.60;0.60;;;;;;;;;;4955928;28;20205;-86
2021/12/31 06:20:32;;;;;;;1.10;1.10;;;;;;;;;;4957096;29;20190;-86
2021/12/31 06:23:00;;;;;;;0.98;0.90;;;;;;;;;;4957130;29;20201;-86
2021/12/31 06:25:33;;;;;;;0.90;0.70;;;;;;;;;;4956993;29;20213;-86
2021/12/31 06:28:02;;;;;;;0.68;0.68;;;;;;;;;;4956866;29;20209;-86
2021/12/31 06:30:30;;;;;;;0.75;0.75;;;;;;;;;;4956766;29;20722;-86
2021/12/31 06:33:00;;;;;;;0.60;0.60;;;;;;;;;;4956602;29;20740;-87
2021/12/31 06:35:31;;;;;;;0.73;0.73;;;;;;;;;;4956724;29;20617;-87
2021/12/31 06:38:06;;;;;;;0.80;0.75;;;;;;;;;;4956706;29;20690;-86
2021/12/31 06:40:35;;;;;;;1.30;0.88;;;;;;;;;;4956836;29;20201;-87
2021/12/31 06:43:04;;;;;;;0.70;0.70;;;;;;;;;;4956659;29;20275;-86
2021/12/31 06:45:33;;;;;;;0.73;0.73;;;;;;;;;;4956400;29;20190;-86
2021/12/31 06:48:09;;;;;;;1.08;0.98;;;;;;;;;;4956404;29;20205;-86
2021/12/31 06:50:39;;;;;;;1.00;0.95;;;;;;;;;;4955555;28;20706;-86
2021/12/31 06:53:07;;;;;;;2.00;0.95;;;;;;;;;;4956386;29;20190;-86
2021/12/31 06:55:36;;;;;;;1.15;1.05;;;;;;;;;;4956170;29;20187;-86
2021/12/31 06:58:03;;;;;;;0.50;0.50;;;;;;;;;;4956152;29;20201;-86
2021/12/31 07:00:31;;;;;;;1.30;1.20;;;;;;;;;;4955964;29;20556;-87
2021/12/31 07:03:13;;;;;;;1.30;1.05;;;;;;;;;;4956625;29;20261;-86
2021/12/31 07:05:44;;;;;;;0.90;0.90;;;;;;;;;;4955813;29;20205;-86
2021/12/31 07:08:12;;;;;;;1.02;1.02;;;;;;;;;;4955947;29;20182;-87
2021/12/31 07:10:41;;;;;;;0.98;0.98;;;;;;;;;;4955909;28;20209;-86
2021/12/31 07:13:11;;;;;;;1.25;1.15;;;;;;;;;;4955748;29;20225;-87
2021/12/31 07:15:48;;;;;;;1.70;1.30;;;;;;;;;;4940208;29;20261;-86
2021/12/31 07:18:18;;;;;;;1.13;1.02;;;;;;;;;;4937095;29;20598;-87
2021/12/31 07:20:49;;;;;;;2.25;1.40;;;;;;;;;;4950400;28;20201;-86
2021/12/31 07:23:26;;;;;;;1.45;1.35;;;;;;;;;;4955687;29;20201;-87
2021/12/31 07:25:53;;;;;;;1.02;0.93;;;;;;;;;;4955784;29;20527;-87
2021/12/31 07:28:23;;;;;;;1.85;1.02;;;;;;;;;;4956667;28;20196;-89
2021/12/31 07:30:52;;;;;;;1.10;1.00;;;;;;;;;;4956652;29;20296;-88
2021/12/31 07:33:28;;;;;;;0.95;0.80;;;;;;;;;;4956218;29;20186;-88
2021/12/31 07:35:59;;;;;;;1.15;1.10;;;;;;;;;;4955996;29;20207;-88
2021/12/31 07:38:38;;;;;;;1.83;1.73;;;;;;;;;;4955901;29;20552;-88
2021/12/31 07:41:20;;;;;;;2.65;1.58;;;;;;;;;;4955993;29;20225;-89
2021/12/31 07:43:49;;;;;;;1.85;1.10;;;;;;;;;;4956658;29;20177;-89
2021/12/31 07:46:17;;;;;;;1.35;1.25;;;;;;;;;;4955166;28;20189;-88
2021/12/31 07:48:45;;;;;;;1.08;1.08;;;;;;;;;;4956251;29;20268;-90
2021/12/31 07:51:15;;;;;;;2.50;1.38;;;;;;;;;;4955413;29;20232;-88
2021/12/31 07:53:44;;;;;;;1.85;1.70;;;;;;;;;;4955538;29;20213;-87
2021/12/31 07:56:12;;;;;;;1.33;1.23;;;;;;;;;;4956230;29;20185;-88
2021/12/31 07:58:43;;;;;;;3.00;1.45;;;;;;;;;;4955536;29;20554;-89
2021/12/31 08:01:13;;;;;;;1.85;1.25;;;;;;;;;;4954880;29;20224;-88
2021/12/31 08:03:40;;;;;;;1.15;1.10;;;;;;;;;;4954885;28;20186;-88
2021/12/31 08:06:10;;;;;;;1.23;1.13;;;;;;;;;;4962099;28;20211;-87
2021/12/31 08:08:46;;;;;;;4.53;2.38;;;;;;;;;;4974732;28;20201;-87
2021/12/31 08:11:18;;;;;;;1.80;1.23;;;;;;;;;;4959856;28;21455;-88
2021/12/31 08:13:45;;;;;;;1.83;1.25;;;;;;;;;;4946577;29;20194;-88
2021/12/31 08:16:26;;;;;;;1.33;1.17;;;;;;;;;;4954946;29;20197;-88
2021/12/31 08:19:00;;;;;;;1.30;1.20;;;;;;;;;;4946368;29;20276;-88
2021/12/31 08:21:28;;;;;;;1.58;0.98;;;;;;;;;;4954532;29;20221;-88
2021/12/31 08:23:58;;;;;;;0.95;0.90;;;;;;;;;;4936905;29;20193;-87
2021/12/31 08:26:30;;;;;;;1.23;1.10;;;;;;;;;;4935567;29;20221;-89
2021/12/31 08:28:57;;;;;;;0.93;0.93;;;;;;;;;;4940768;29;20288;-88
2021/12/31 08:31:32;;;;;;;1.00;1.00;;;;;;;;;;4954078;28;20237;-87
2021/12/31 08:34:19;;;;;;;0.93;0.90;;;;;;;;;;4954898;29;20196;-87
2021/12/31 08:36:56;;;;;;;1.30;1.20;;;;;;;;;;4954916;29;20288;-87
2021/12/31 08:39:30;;;;;;;2.15;1.35;;;;;;;;;;4954307;28;20268;-88
2021/12/31 08:42:09;;;;;;;1.50;1.40;;;;;;;;;;4954554;28;20227;-88
2021/12/31 08:44:37;;;;;;;1.50;1.10;;;;;;;;;;4954763;29;20233;-87
2021/12/31 08:47:05;;;;;;;1.25;1.15;;;;;;;;;;4954731;29;20230;-88
2021/12/31 08:49:33;;;;;;;2.60;1.33;;;;;;;;;;4954676;29;20588;-88
2021/12/31 08:52:04;;;;;;;1.13;1.13;;;;;;;;;;4946927;29;20675;-89
2021/12/31 08:54:33;;;;;;;1.27;1.17;;;;;;;;;;4954619;29;20264;-88
2021/12/31 08:57:06;;;;;;;1.60;1.25;;;;;;;;;;4954655;29;20197;-88
2021/12/31 08:59:48;;;;;;;1.75;1.23;;;;;;;;;;4954975;29;20205;-87
2021/12/31 09:02:17;;;;;;;1.13;1.00;;;;;;;;;;4954343;28;20815;-87
2021/12/31 09:04:53;;;;;;;1.10;1.10;;;;;;;;;;4954593;29;20236;-86
2021/12/31 09:07:21;;;;;;;2.47;1.33;;;;;;;;;;4954752;29;20200;-87
2021/12/31 09:09:51;;;;;;;1.40;1.30;;;;;;;;;;4955321;29;20192;-87
2021/12/31 09:12:19;;;;;;;1.35;1.25;;;;;;;;;;4987204;23;20228;-85
2021/12/31 09:14:46;;;;;;;1.20;1.20;;;;;;;;;;4960689;28;20188;-84
2021/12/31 09:17:14;;;;;;;2.22;1.27;;;;;;;;;;4973087;28;20208;-84
2021/12/31 09:19:41;;;;;;;1.42;1.20;;;;;;;;;;4974714;28;20204;-85
2021/12/31 09:22:09;;;;;;;3.08;1.45;;;;;;;;;;4973077;28;20217;-84
2021/12/31 09:24:37;;;;;;;1.17;1.10;;;;;;;;;;4974524;28;20267;-85
2021/12/31 09:27:07;;;;;;;1.85;1.30;;;;;;;;;;4974572;28;20271;-82
2021/12/31 09:29:34;;;;;;;1.50;1.27;;;;;;;;;;4974753;28;20204;-85
2021/12/31 09:32:02;;;;;;;1.40;1.33;;;;;;;;;;4973661;28;20220;-83
2021/12/31 09:34:29;;;;;;;1.20;1.10;;;;;;;;;;4973419;28;20212;-84
2021/12/31 09:36:56;;;;;;;1.23;1.08;;;;;;;;;;4973636;28;20212;-84
2021/12/31 09:39:24;;;;;;;1.20;1.10;;;;;;;;;;4973300;28;20210;-84
2021/12/31 09:41:51;;;;;;;1.10;1.10;;;;;;;;;;4973171;28;20228;-83
2021/12/31 09:44:23;;;;;;;1.20;1.10;;;;;;;;;;4972161;28;20196;-83
2021/12/31 09:46:50;;;;;;;2.17;1.20;;;;;;;;;;4972326;28;20211;-83
2021/12/31 09:49:17;;;;;;;1.92;1.58;;;;;;;;;;4972978;28;20181;-83
2021/12/31 09:51:45;;;;;;;1.63;1.20;;;;;;;;;;4971968;28;20228;-84
2021/12/31 09:54:13;;;;;;;1.35;1.25;;;;;;;;;;4974853;28;20694;-83
2021/12/31 09:56:42;;;;;;;1.42;1.35;;;;;;;;;;4976483;28;20199;-83
2021/12/31 09:59:11;;;;;;;1.10;1.00;;;;;;;;;;4976076;28;20576;-83
2021/12/31 10:01:47;;;;;;;1.42;1.00;;;;;;;;;;4975816;28;20223;-84
2021/12/31 10:04:14;;;;;;;1.70;1.30;;;;;;;;;;4970212;28;20207;-84
2021/12/31 10:07:08;;;;;;;1.67;1.50;;;;;;;;;;4975741;28;20201;-84
2021/12/31 10:09:36;;;;;;;1.08;1.00;;;;;;;;;;4976160;28;20189;-83
2021/12/31 10:12:04;;;;;;;2.05;1.33;;;;;;;;;;4976385;28;20235;-82
2021/12/31 10:14:36;;;;;;;2.45;1.45;;;;;;;;;;4975300;28;20196;-83
2021/12/31 10:17:07;;;;;;;1.10;1.08;;;;;;;;;;4975320;28;20208;-84
2021/12/31 10:19:34;;;;;;;1.25;1.00;;;;;;;;;;4976311;28;20627;-83
2021/12/31 10:22:02;;;;;;;0.98;0.90;;;;;;;;;;4975317;28;20236;-83
2021/12/31 10:24:39;;;;;;;0.70;0.70;;;;;;;;;;4973232;28;20196;-82
2021/12/31 10:27:19;;;;;;;1.13;1.02;;;;;;;;;;4974419;28;20204;-81
2021/12/31 10:29:54;;;;;;;1.95;1.15;;;;;;;;;;4973510;28;20195;-81
2021/12/31 10:32:26;;;;;;;1.15;1.10;;;;;;;;;;4975410;28;20227;-81
2021/12/31 10:34:54;;;;;;;1.83;1.48;;;;;;;;;;4975620;28;20199;-81
2021/12/31 10:37:25;;;;;;;1.65;1.10;;;;;;;;;;4974844;28;20207;-82
2021/12/31 10:39:57;;;;;;;1.15;1.10;;;;;;;;;;4975934;28;20653;-83
2021/12/31 10:42:30;;;;;;;1.40;1.30;;;;;;;;;;4974519;28;20227;-82
2021/12/31 10:44:58;;;;;;;1.40;1.30;;;;;;;;;;4975114;28;20617;-83
2021/12/31 10:47:32;;;;;;;1.27;1.17;;;;;;;;;;4974495;28;20283;-82
2021/12/31 10:50:15;;;;;;;1.08;1.00;;;;;;;;;;4974815;28;20185;-82
2021/12/31 10:52:56;;;;;;;1.83;1.25;;;;;;;;;;4973742;28;20239;-82
2021/12/31 10:55:29;;;;;;;1.30;1.20;;;;;;;;;;4975819;28;20216;-82
2021/12/31 10:57:59;;;;;;;1.65;1.55;;;;;;;;;;4974603;28;20236;-83
2021/12/31 11:00:30;;;;;;;1.30;1.20;;;;;;;;;;4975750;28;20191;-83
2021/12/31 11:02:59;;;;;;;1.67;1.58;;;;;;;;;;4974487;28;21200;-83
2021/12/31 11:05:27;;;;;;;1.10;0.98;;;;;;;;;;4975574;28;20189;-83
2021/12/31 11:08:00;;;;;;;0.95;0.95;;;;;;;;;;4974866;28;20212;-83
2021/12/31 11:10:36;;;;;;;0.90;0.90;;;;;;;;;;4975192;28;20742;-84
2021/12/31 11:13:09;;;;;;;1.42;1.20;;;;;;;;;;4975213;28;20286;-83
2021/12/31 11:15:37;;;;;;;0.70;0.70;;;;;;;;;;4975155;28;20328;-82
2021/12/31 11:18:08;;;;;;;1.13;1.02;;;;;;;;;;4975208;28;20196;-82
2021/12/31 11:20:36;;;;;;;0.98;0.98;;;;;;;;;;4976634;28;20269;-82
2021/12/31 11:23:03;;;;;;;0.75;0.75;;;;;;;;;;4976084;28;20229;-82
2021/12/31 11:25:31;;;;;;;0.90;0.90;;;;;;;;;;4976792;28;20205;-82
2021/12/31 11:27:59;;;;;;;1.30;1.20;;;;;;;;;;4976598;28;20566;-82
2021/12/31 11:30:37;;;;;;;0.85;0.80;;;;;;;;;;4976582;28;20255;-82
2021/12/31 11:33:11;;;;;;;2.20;1.05;;;;;;;;;;4975672;28;20753;-82
2021/12/31 11:35:42;;;;;;;1.60;1.00;;;;;;;;;;4975715;28;20251;-82
2021/12/31 11:38:16;;;;;;;1.00;1.00;;;;;;;;;;4976187;28;20211;-82
2021/12/31 11:40:50;;;;;;;0.98;0.88;;;;;;;;;;4976284;28;20235;-83
2021/12/31 11:43:26;;;;;;;1.05;0.98;;;;;;;;;;4975671;28;20259;-82
2021/12/31 11:46:33;;;;;;;0.80;0.80;;;;;;;;;;4975954;28;20204;-82
2021/12/31 11:49:03;;;;;;;0.95;0.77;;;;;;;;;;4976031;28;20212;-82
2021/12/31 11:51:35;;;;;;;0.90;0.90;;;;;;;;;;4975882;28;20220;-82
2021/12/31 11:54:21;;;;;;;1.05;1.05;;;;;;;;;;4975876;28;20235;-82
2021/12/31 11:57:17;;;;;;;1.70;1.60;;;;;;;;;;4975746;28;20201;-82
2021/12/31 11:59:55;;;;;;;1.20;1.20;;;;;;;;;;4975792;28;20613;-82
2021/12/31 12:02:40;;;;;;;1.70;1.60;;;;;;;;;;4976127;28;20625;-82
2021/12/31 12:05:14;;;;;;;0.75;0.75;;;;;;;;;;4975984;28;20671;-81
2021/12/31 12:07:48;;;;;;;0.90;0.90;;;;;;;;;;4975924;28;20562;-81
2021/12/31 12:10:26;;;;;;;0.80;0.80;;;;;;;;;;4975619;28;20698;-82
2021/12/31 12:13:26;;;;;;;0.80;0.80;;;;;;;;;;4967459;28;20246;-82
2021/12/31 12:15:54;;;;;;;1.20;0.98;;;;;;;;;;4966140;28;20901;-81
2021/12/31 12:18:56;;;;;;;0.90;0.90;;;;;;;;;;4975578;28;20208;-81
2021/12/31 12:21:39;;;;;;;1.00;0.90;;;;;;;;;;4975820;28;20228;-81
2021/12/31 12:24:07;;;;;;;2.20;0.80;;;;;;;;;;4975869;28;20766;-81
2021/12/31 12:26:35;;;;;;;1.23;1.02;;;;;;;;;;4975918;28;20196;-81
2021/12/31 12:29:03;;;;;;;0.70;0.70;;;;;;;;;;4975974;28;20561;-80
2021/12/31 12:31:35;;;;;;;1.33;0.82;;;;;;;;;;4976486;28;20231;-81
2021/12/31 12:34:29;;;;;;;1.23;1.13;;;;;;;;;;4976637;28;20603;-83
2021/12/31 12:36:58;;;;;;;1.17;1.10;;;;;;;;;;4963880;28;20682;-81
2021/12/31 12:39:25;;;;;;;1.15;1.15;;;;;;;;;;4975497;28;20208;-82
2021/12/31 12:41:53;;;;;;;1.13;1.13;;;;;;;;;;4975810;28;20235;-83
2021/12/31 12:44:20;;;;;;;1.10;1.00;;;;;;;;;;4976066;28;20192;-85
2021/12/31 12:46:57;;;;;;;1.42;1.40;;;;;;;;;;4976028;28;20185;-83
2021/12/31 12:49:26;;;;;;;1.35;1.10;;;;;;;;;;4966994;28;20228;-82
2021/12/31 12:51:56;;;;;;;1.08;1.08;;;;;;;;;;4975685;28;20221;-82
2021/12/31 12:54:26;;;;;;;1.40;1.02;;;;;;;;;;4974802;28;20220;-83
2021/12/31 12:56:54;;;;;;;0.73;0.70;;;;;;;;;;4975026;28;20189;-83
2021/12/31 12:59:22;;;;;;;0.75;0.75;;;;;;;;;;4974923;28;20569;-83
2021/12/31 13:01:52;;;;;;;4.25;1.05;;;;;;;;;;4974535;28;20227;-83
2021/12/31 13:04:23;;;;;;;1.00;0.90;;;;;;;;;;4974738;28;20185;-82
2021/12/31 13:06:57;;;;;;;1.42;1.00;;;;;;;;;;4973846;28;20188;-82
2021/12/31 13:09:31;;;;;;;0.80;0.80;;;;;;;;;;4974218;28;20199;-82
2021/12/31 13:12:02;;;;;;;0.90;0.90;;;;;;;;;;4974602;28;20235;-82
2021/12/31 13:14:32;;;;;;;0.85;0.85;;;;;;;;;;4974104;28;20209;-82
2021/12/31 13:17:00;;;;;;;0.68;0.68;;;;;;;;;;4974158;28;20189;-82
2021/12/31 13:19:33;;;;;;;5.22;1.30;;;;;;;;;;4974067;28;20188;-82
2021/12/31 13:22:02;;;;;;;0.90;0.80;;;;;;;;;;4974101;28;20221;-81
2021/12/31 13:24:31;;;;;;;0.70;0.70;;;;;;;;;;4974362;28;20236;-82
2021/12/31 13:27:05;;;;;;;1.00;1.00;;;;;;;;;;4976073;28;20181;-81
2021/12/31 13:29:33;;;;;;;0.82;0.80;;;;;;;;;;4976993;28;20224;-81
2021/12/31 13:32:08;;;;;;;0.77;0.77;;;;;;;;;;4977437;28;20412;-81
2021/12/31 13:34:44;;;;;;;0.93;0.93;;;;;;;;;;4977481;28;20277;-81
2021/12/31 13:37:25;;;;;;;0.80;0.80;;;;;;;;;;4976932;28;20188;-81
2021/12/31 13:40:09;;;;;;;0.90;0.90;;;;;;;;;;4976558;28;20188;-81
2021/12/31 13:42:37;;;;;;;0.55;0.55;;;;;;;;;;4977195;28;20609;-81
2021/12/31 13:45:06;;;;;;;1.65;1.15;;;;;;;;;;4976892;28;20197;-81
2021/12/31 13:47:33;;;;;;;0.60;0.60;;;;;;;;;;4977053;28;20196;-81
2021/12/31 13:50:08;;;;;;;0.63;0.63;;;;;;;;;;4977055;28;20195;-81
2021/12/31 13:52:43;;;;;;;0.70;0.70;;;;;;;;;;4976686;28;20222;-81
2021/12/31 13:55:20;;;;;;;0.82;0.82;;;;;;;;;;4976981;28;20208;-81
2021/12/31 13:57:57;;;;;;;1.05;1.00;;;;;;;;;;4976251;28;20598;-81
2021/12/31 14:00:26;;;;;;;0.65;0.63;;;;;;;;;;4975026;28;20189;-82
2021/12/31 14:02:54;;;;;;;1.50;1.40;;;;;;;;;;4957586;29;20233;-81
2021/12/31 14:05:23;;;;;;;0.90;0.90;;;;;;;;;;4974071;28;20196;-81
2021/12/31 14:07:59;;;;;;;1.60;0.80;;;;;;;;;;4957499;29;20255;-81
2021/12/31 14:10:31;;;;;;;1.00;0.88;;;;;;;;;;4957442;29;20228;-81
2021/12/31 14:13:01;;;;;;;0.75;0.75;;;;;;;;;;4972895;28;20247;-82
2021/12/31 14:15:32;;;;;;;1.00;1.00;;;;;;;;;;4976841;28;20227;-82
2021/12/31 14:18:04;;;;;;;0.82;0.73;;;;;;;;;;4976410;28;20194;-82
2021/12/31 14:20:34;;;;;;;0.90;0.80;;;;;;;;;;4976828;28;20219;-81
2021/12/31 14:23:02;;;;;;;0.90;0.90;;;;;;;;;;4976785;28;20220;-81
2021/12/31 14:25:33;;;;;;;0.63;0.63;;;;;;;;;;4977452;28;20191;-82
2021/12/31 14:28:02;;;;;;;0.80;0.80;;;;;;;;;;4976765;28;20215;-81
2021/12/31 14:30:31;;;;;;;2.22;0.95;;;;;;;;;;4980740;28;20851;-82
2021/12/31 14:33:00;;;;;;;1.25;1.20;;;;;;;;;;4972659;28;20227;-82
2021/12/31 14:35:31;;;;;;;0.75;0.75;;;;;;;;;;4978065;28;20255;-84
2021/12/31 14:37:59;;;;;;;0.90;0.90;;;;;;;;;;4977810;28;20240;-84
2021/12/31 14:40:27;;;;;;;1.10;1.00;;;;;;;;;;4978765;28;20675;-84
2021/12/31 14:42:56;;;;;;;0.85;0.85;;;;;;;;;;4977677;28;20228;-82
2021/12/31 14:45:24;;;;;;;0.82;0.82;;;;;;;;;;4959051;29;20201;-83
2021/12/31 14:47:52;;;;;;;0.80;0.80;;;;;;;;;;4974006;28;20212;-82
2021/12/31 14:50:20;;;;;;;0.85;0.85;;;;;;;;;;4977967;28;20223;-81
2021/12/31 14:56:38;;;;;;;0.70;0.70;;;;;;;;;;4969084;28;20247;-83
2021/12/31 14:59:14;;;;;;;0.98;0.98;;;;;;;;;;4977392;28;20254;-83
2021/12/31 15:14:46;;;;;;;0.80;0.80;;;;;;;;;;4951789;29;20233;-83
2021/12/31 15:17:14;;;;;;;1.00;1.00;;;;;;;;;;4944642;29;20208;-84
2021/12/31 15:19:42;;;;;;;0.73;0.73;;;;;;;;;;4956671;29;20244;-83
2021/12/31 15:22:10;;;;;;;0.82;0.80;;;;;;;;;;4945790;29;20220;-83